createdAt,value
2019-03-29T00:00:11.907Z,62.13
2019-03-29T00:01:08.659Z,59.75
2019-03-29T00:01:45.079Z,55.20
2019-03-29T00:02:21.229Z,58.45
2019-03-29T00:02:57.187Z,61.30
2019-03-29T00:03:33.214Z,52.67
2019-03-29T00:04:09.540Z,55.35
2019-03-29T00:04:46.058Z,55.90
2019-03-29T00:05:22.434Z,53.83
2019-03-29T00:05:58.726Z,54.55
2019-03-29T00:06:34.745Z,53.80
2019-03-29T00:07:10.994Z,54.18
2019-03-29T00:07:47.374Z,57.20
2019-03-29T00:08:23.673Z,55.38
2019-03-29T00:08:59.850Z,55.10
2019-03-29T00:09:36.145Z,53.70
2019-03-29T00:10:12.575Z,57.25
2019-03-29T00:10:48.878Z,55.12
2019-03-29T00:11:25.281Z,56.10
2019-03-29T00:12:01.952Z,58.48
2019-03-29T00:12:38.172Z,61.90
2019-03-29T00:13:14.772Z,58.87
2019-03-29T00:13:51.218Z,61.58
2019-03-29T00:14:27.583Z,63.02
2019-03-29T00:15:03.984Z,55.75
2019-03-29T00:15:40.170Z,57.70
2019-03-29T00:16:16.363Z,56.45
2019-03-29T00:16:52.675Z,55.45
2019-03-29T00:17:28.997Z,50.70
2019-03-29T00:18:05.363Z,47.83
2019-03-29T00:18:41.427Z,48.70
2019-03-29T00:19:17.589Z,51.55
2019-03-29T00:19:54.251Z,52.67
2019-03-29T00:20:30.903Z,53.80
2019-03-29T00:21:07.233Z,68.70
2019-03-29T00:21:43.691Z,60.10
2019-03-29T00:22:19.808Z,61.63
2019-03-29T00:22:56.335Z,63.87
2019-03-29T00:23:33.886Z,67.00
2019-03-29T00:24:10.115Z,65.90
2019-03-29T00:24:46.395Z,64.03
2019-03-29T00:25:22.863Z,62.48
2019-03-29T00:25:59.187Z,59.13
2019-03-29T00:26:35.693Z,56.10
2019-03-29T00:27:12.011Z,55.12
2019-03-29T00:27:48.340Z,56.28
2019-03-29T00:28:24.920Z,59.70
2019-03-29T00:29:01.379Z,57.85
2019-03-29T00:29:37.856Z,57.95
2019-03-29T00:30:14.170Z,59.70
2019-03-29T00:30:50.470Z,59.15
2019-03-29T00:31:26.348Z,55.70
2019-03-29T00:32:02.745Z,53.38
2019-03-29T00:32:38.860Z,56.33
2019-03-29T00:33:14.963Z,63.58
2019-03-29T00:33:51.148Z,72.62
2019-03-29T00:34:27.141Z,77.92
2019-03-29T00:35:03.481Z,73.87
2019-03-29T00:35:39.650Z,65.57
2019-03-29T00:36:15.788Z,67.53
2019-03-29T00:36:52.047Z,68.33
2019-03-29T00:37:28.337Z,71.77
2019-03-29T00:38:04.615Z,61.13
2019-03-29T00:38:40.815Z,58.92
2019-03-29T00:39:17.044Z,59.23
2019-03-29T00:39:56.126Z,60.92
2019-03-29T00:40:32.534Z,63.68
2019-03-29T00:41:09.293Z,68.75
2019-03-29T00:41:45.632Z,66.95
2019-03-29T00:42:21.566Z,65.03
2019-03-29T00:42:57.937Z,69.87
2019-03-29T00:43:34.845Z,69.42
2019-03-29T00:44:11.072Z,68.67
2019-03-29T00:44:47.238Z,69.67
2019-03-29T00:45:23.289Z,71.90
2019-03-29T00:45:59.572Z,71.00
2019-03-29T00:46:35.880Z,69.65
2019-03-29T00:47:12.000Z,67.70
2019-03-29T00:47:48.139Z,61.88
2019-03-29T00:48:24.236Z,58.13
2019-03-29T00:49:00.345Z,53.13
2019-03-29T00:49:36.351Z,56.50
2019-03-29T00:50:12.529Z,59.38
2019-03-29T00:50:48.743Z,62.17
2019-03-29T00:51:24.986Z,57.65
2019-03-29T00:52:01.521Z,58.52
2019-03-29T00:52:37.622Z,55.90
2019-03-29T00:53:14.672Z,52.95
2019-03-29T00:53:50.819Z,54.20
2019-03-29T00:54:28.038Z,56.13
2019-03-29T00:55:04.251Z,64.55
2019-03-29T00:55:40.393Z,58.38
2019-03-29T00:56:16.451Z,55.35
2019-03-29T00:56:52.418Z,56.63
2019-03-29T00:57:28.661Z,57.65
2019-03-29T00:58:04.819Z,56.13
2019-03-29T00:58:41.058Z,57.27
2019-03-29T00:59:17.656Z,56.23
2019-03-29T00:59:53.957Z,56.28
2019-03-29T01:00:31.602Z,60.95
2019-03-29T01:01:08.211Z,60.55
2019-03-29T01:01:44.227Z,57.98
2019-03-29T01:02:20.310Z,58.75
2019-03-29T01:02:56.421Z,59.67
2019-03-29T01:03:32.379Z,67.62
2019-03-29T01:04:08.603Z,66.57
2019-03-29T01:04:45.173Z,58.48
2019-03-29T01:05:21.345Z,62.95
2019-03-29T01:05:57.471Z,60.60
2019-03-29T01:06:33.757Z,57.43
2019-03-29T01:07:09.958Z,61.65
2019-03-29T01:07:46.286Z,59.58
2019-03-29T01:08:22.475Z,58.95
2019-03-29T01:08:58.641Z,59.63
2019-03-29T01:09:34.877Z,59.25
2019-03-29T01:10:11.510Z,61.88
2019-03-29T01:10:48.186Z,52.73
2019-03-29T01:11:24.905Z,60.12
2019-03-29T01:12:01.225Z,56.28
2019-03-29T01:12:37.265Z,59.55
2019-03-29T01:13:13.426Z,58.30
2019-03-29T01:13:50.255Z,60.85
2019-03-29T01:14:27.511Z,61.90
2019-03-29T01:15:03.757Z,57.10
2019-03-29T01:15:39.952Z,59.60
2019-03-29T01:16:16.189Z,66.45
2019-03-29T01:16:52.217Z,65.17
2019-03-29T01:17:28.348Z,57.30
2019-03-29T01:18:07.798Z,55.73
2019-03-29T01:18:43.960Z,55.08
2019-03-29T01:19:20.195Z,56.60
2019-03-29T01:19:56.329Z,55.95
2019-03-29T01:20:32.618Z,56.45
2019-03-29T01:21:09.263Z,56.45
2019-03-29T01:21:45.388Z,59.53
2019-03-29T01:22:21.578Z,61.65
2019-03-29T01:22:57.988Z,58.78
2019-03-29T01:23:34.492Z,55.55
2019-03-29T01:24:11.017Z,53.45
2019-03-29T01:24:47.200Z,59.33
2019-03-29T01:25:23.311Z,56.18
2019-03-29T01:26:00.956Z,49.27
2019-03-29T01:26:37.274Z,51.30
2019-03-29T01:27:13.285Z,54.83
2019-03-29T01:27:49.458Z,58.38
2019-03-29T01:28:26.311Z,59.93
2019-03-29T01:29:02.657Z,54.93
2019-03-29T01:29:38.601Z,53.95
2019-03-29T01:30:16.033Z,55.92
2019-03-29T01:30:52.422Z,58.33
2019-03-29T01:31:28.433Z,57.65
2019-03-29T01:32:04.850Z,59.15
2019-03-29T01:32:41.058Z,56.75
2019-03-29T01:33:17.274Z,56.53
2019-03-29T01:33:53.367Z,55.63
2019-03-29T01:34:30.061Z,54.90
2019-03-29T01:35:06.347Z,53.08
2019-03-29T01:35:42.456Z,53.50
2019-03-29T01:36:18.682Z,54.88
2019-03-29T01:36:55.062Z,52.95
2019-03-29T01:37:31.322Z,47.20
2019-03-29T01:38:20.742Z,51.75
2019-03-29T01:38:45.339Z,49.45
2019-03-29T01:39:21.478Z,51.02
2019-03-29T01:39:57.607Z,51.25
2019-03-29T01:40:35.073Z,53.85
2019-03-29T01:41:11.338Z,58.65
2019-03-29T01:41:47.448Z,55.28
2019-03-29T01:42:24.249Z,51.70
2019-03-29T01:43:00.261Z,53.68
2019-03-29T01:43:36.307Z,49.60
2019-03-29T01:44:12.401Z,52.05
2019-03-29T01:44:48.504Z,52.38
2019-03-29T01:45:24.688Z,52.38
2019-03-29T01:46:00.908Z,55.30
2019-03-29T01:46:38.099Z,54.83
2019-03-29T01:47:14.548Z,56.70
2019-03-29T01:47:50.595Z,53.90
2019-03-29T01:48:26.726Z,54.33
2019-03-29T01:49:02.927Z,62.48
2019-03-29T01:49:39.226Z,57.03
2019-03-29T01:50:15.697Z,67.27
2019-03-29T01:50:51.807Z,75.60
2019-03-29T01:51:27.938Z,66.33
2019-03-29T01:52:04.551Z,68.60
2019-03-29T01:52:40.575Z,65.22
2019-03-29T01:53:16.948Z,69.87
2019-03-29T01:53:53.056Z,70.17
2019-03-29T01:54:29.062Z,95.05
2019-03-29T01:55:05.308Z,92.02
2019-03-29T01:55:41.619Z,90.77
2019-03-29T01:56:17.812Z,94.47
2019-03-29T01:56:54.179Z,100.33
2019-03-29T01:57:30.425Z,112.92
2019-03-29T01:58:06.498Z,116.85
2019-03-29T01:58:42.469Z,116.70
2019-03-29T01:59:18.440Z,103.85
2019-03-29T01:59:55.192Z,79.75
2019-03-29T02:00:36.040Z,80.87
2019-03-29T02:01:12.600Z,81.67
2019-03-29T02:01:48.735Z,78.80
2019-03-29T02:02:24.789Z,75.03
2019-03-29T02:03:01.039Z,75.45
2019-03-29T02:03:37.540Z,78.80
2019-03-29T02:04:13.662Z,61.42
2019-03-29T02:04:49.850Z,57.95
2019-03-29T02:05:26.159Z,60.45
2019-03-29T02:06:02.110Z,67.05
2019-03-29T02:06:38.264Z,58.60
2019-03-29T02:07:14.372Z,58.55
2019-03-29T02:07:50.405Z,57.90
2019-03-29T02:08:35.727Z,63.00
2019-03-29T02:09:05.126Z,66.70
2019-03-29T02:09:41.731Z,61.15
2019-03-29T02:10:18.299Z,63.10
2019-03-29T02:10:54.669Z,58.75
2019-03-29T02:11:30.889Z,61.95
2019-03-29T02:12:07.356Z,64.80
2019-03-29T02:12:43.383Z,71.87
2019-03-29T02:13:19.595Z,72.08
2019-03-29T02:13:55.563Z,69.15
2019-03-29T02:14:31.626Z,71.28
2019-03-29T02:15:09.195Z,70.55
2019-03-29T02:15:45.248Z,74.35
2019-03-29T02:16:21.531Z,69.72
2019-03-29T02:16:57.642Z,70.52
2019-03-29T02:17:33.665Z,66.47
2019-03-29T02:18:09.963Z,67.90
2019-03-29T02:18:46.275Z,60.98
2019-03-29T02:19:22.338Z,57.95
2019-03-29T02:19:58.671Z,57.13
2019-03-29T02:20:34.823Z,56.23
2019-03-29T02:21:10.987Z,56.60
2019-03-29T02:21:47.034Z,59.15
2019-03-29T02:22:22.942Z,53.83
2019-03-29T02:22:59.200Z,54.98
2019-03-29T02:23:35.785Z,53.70
2019-03-29T02:24:11.924Z,58.05
2019-03-29T02:24:48.099Z,55.98
2019-03-29T02:25:24.237Z,56.23
2019-03-29T02:26:00.529Z,59.63
2019-03-29T02:26:36.744Z,61.77
2019-03-29T02:27:12.963Z,57.05
2019-03-29T02:27:49.085Z,61.35
2019-03-29T02:28:25.104Z,59.73
2019-03-29T02:29:01.423Z,65.25
2019-03-29T02:29:37.662Z,75.37
2019-03-29T02:30:14.273Z,67.17
2019-03-29T02:30:50.438Z,73.00
2019-03-29T02:31:28.826Z,72.55
2019-03-29T02:32:04.480Z,71.07
2019-03-29T02:32:40.883Z,78.62
2019-03-29T02:33:17.180Z,71.80
2019-03-29T02:33:53.268Z,67.17
2019-03-29T02:34:29.413Z,69.00
2019-03-29T02:35:05.926Z,62.65
2019-03-29T02:35:42.098Z,71.90
2019-03-29T02:36:18.149Z,62.75
2019-03-29T02:36:54.409Z,61.37
2019-03-29T02:37:30.713Z,60.48
2019-03-29T02:38:06.909Z,59.85
2019-03-29T02:38:55.325Z,60.85
2019-03-29T02:39:21.463Z,61.40
2019-03-29T02:39:57.620Z,54.73
2019-03-29T02:40:33.795Z,55.63
2019-03-29T02:41:10.018Z,55.70
2019-03-29T02:41:46.854Z,60.95
2019-03-29T02:42:23.139Z,57.78
2019-03-29T02:42:59.373Z,59.33
2019-03-29T02:43:35.724Z,81.78
2019-03-29T02:44:11.901Z,97.33
2019-03-29T02:44:48.088Z,100.90
2019-03-29T02:45:24.471Z,93.72
2019-03-29T02:46:00.641Z,115.05
2019-03-29T02:46:36.929Z,119.87
2019-03-29T02:47:12.995Z,115.37
2019-03-29T02:47:49.236Z,122.65
2019-03-29T02:48:25.280Z,107.95
2019-03-29T02:49:01.573Z,113.03
2019-03-29T02:49:37.913Z,95.62
2019-03-29T02:50:14.331Z,95.72
2019-03-29T02:50:50.557Z,105.40
2019-03-29T02:51:26.839Z,95.85
2019-03-29T02:52:03.071Z,78.57
2019-03-29T02:52:39.238Z,89.70
2019-03-29T02:53:15.413Z,83.60
2019-03-29T02:53:51.466Z,76.20
2019-03-29T02:54:27.950Z,72.72
2019-03-29T02:55:04.050Z,72.87
2019-03-29T02:55:40.300Z,76.47
2019-03-29T02:56:16.488Z,78.85
2019-03-29T02:56:52.799Z,78.25
2019-03-29T02:57:28.829Z,83.07
2019-03-29T02:58:05.083Z,106.75
2019-03-29T02:58:41.411Z,105.03
2019-03-29T02:59:17.603Z,120.35
2019-03-29T02:59:53.726Z,110.72
2019-03-29T03:00:30.238Z,106.78
2019-03-29T03:01:06.541Z,108.92
2019-03-29T03:01:42.853Z,124.07
2019-03-29T03:02:19.128Z,150.27
2019-03-29T03:02:55.342Z,142.37
2019-03-29T03:03:31.628Z,143.47
2019-03-29T03:04:07.781Z,128.97
2019-03-29T03:04:43.967Z,182.62
2019-03-29T03:05:20.079Z,202.00
2019-03-29T03:05:56.248Z,202.97
2019-03-29T03:06:32.511Z,134.07
2019-03-29T03:07:08.617Z,146.65
2019-03-29T03:07:44.667Z,189.75
2019-03-29T03:08:20.665Z,165.95
2019-03-29T03:09:12.162Z,166.92
2019-03-29T03:09:34.620Z,208.72
2019-03-29T03:10:13.025Z,193.40
2019-03-29T03:10:49.269Z,195.45
2019-03-29T03:11:25.428Z,182.47
2019-03-29T03:12:02.148Z,217.65
2019-03-29T03:12:38.634Z,259.10
2019-03-29T03:13:14.995Z,230.87
2019-03-29T03:13:51.355Z,214.80
2019-03-29T03:14:27.665Z,198.30
2019-03-29T03:15:03.767Z,188.40
2019-03-29T03:15:40.061Z,196.85
2019-03-29T03:16:16.557Z,193.82
2019-03-29T03:16:52.733Z,222.58
2019-03-29T03:17:29.119Z,216.25
2019-03-29T03:18:05.455Z,216.40
2019-03-29T03:18:42.100Z,190.40
2019-03-29T03:19:18.450Z,205.20
2019-03-29T03:19:54.592Z,221.30
2019-03-29T03:20:30.832Z,204.07
2019-03-29T03:22:03.458Z,215.95
2019-03-29T03:22:39.579Z,209.80
2019-03-29T03:23:15.558Z,206.53
2019-03-29T03:23:51.597Z,220.97
2019-03-29T03:24:27.676Z,254.00
2019-03-29T03:25:03.858Z,239.27
2019-03-29T03:25:40.205Z,226.42
2019-03-29T03:26:16.141Z,229.57
2019-03-29T03:26:52.200Z,229.15
2019-03-29T03:27:28.120Z,244.50
2019-03-29T03:28:04.137Z,253.55
2019-03-29T03:28:40.102Z,264.90
2019-03-29T03:29:16.057Z,304.63
2019-03-29T03:29:52.298Z,232.47
2019-03-29T03:30:28.344Z,307.25
2019-03-29T03:31:04.282Z,242.87
2019-03-29T03:31:40.222Z,198.60
2019-03-29T03:32:16.086Z,239.17
2019-03-29T03:32:52.105Z,207.05
2019-03-29T03:33:27.944Z,234.22
2019-03-29T03:34:03.923Z,241.35
2019-03-29T03:34:39.953Z,222.65
2019-03-29T03:35:16.090Z,238.03
2019-03-29T03:35:52.038Z,265.30
2019-03-29T03:36:27.993Z,275.70
2019-03-29T03:37:03.919Z,215.28
2019-03-29T03:37:40.089Z,242.55
2019-03-29T03:38:16.038Z,224.37
2019-03-29T03:38:52.146Z,235.05
2019-03-29T03:39:31.939Z,228.47
2019-03-29T03:40:06.604Z,246.13
2019-03-29T03:40:42.445Z,232.85
2019-03-29T03:41:18.241Z,243.25
2019-03-29T03:41:54.220Z,226.30
2019-03-29T03:42:30.378Z,338.70
2019-03-29T03:43:06.531Z,278.58
2019-03-29T03:43:42.536Z,309.02
2019-03-29T03:44:18.558Z,203.42
2019-03-29T03:44:54.421Z,214.57
2019-03-29T03:45:30.299Z,217.60
2019-03-29T03:46:06.338Z,211.47
2019-03-29T03:46:42.281Z,229.55
2019-03-29T03:47:18.098Z,250.97
2019-03-29T03:47:53.939Z,235.08
2019-03-29T03:48:29.880Z,221.90
2019-03-29T03:49:06.039Z,268.07
2019-03-29T03:49:42.059Z,242.45
2019-03-29T03:50:54.688Z,243.30
2019-03-29T03:51:30.519Z,197.43
2019-03-29T03:52:06.497Z,208.65
2019-03-29T03:52:42.812Z,225.47
2019-03-29T03:53:18.699Z,292.98
2019-03-29T03:53:55.516Z,303.18
2019-03-29T03:54:31.379Z,315.32
2019-03-29T03:55:07.947Z,237.17
2019-03-29T03:55:44.536Z,234.95
2019-03-29T03:56:21.715Z,312.82
2019-03-29T03:56:58.397Z,297.67
2019-03-29T03:57:34.865Z,283.10
2019-03-29T03:58:12.530Z,283.23
2019-03-29T03:58:49.177Z,249.30
2019-03-29T03:59:26.038Z,241.82
2019-03-29T04:00:02.739Z,237.17
2019-03-29T04:00:53.159Z,230.57
2019-03-29T04:01:29.298Z,225.35
2019-03-29T04:02:05.217Z,214.05
2019-03-29T04:02:41.196Z,215.47
2019-03-29T04:03:17.197Z,208.53
2019-03-29T04:03:53.234Z,232.85
2019-03-29T04:04:29.306Z,205.65
2019-03-29T04:05:06.438Z,235.23
2019-03-29T04:05:42.296Z,232.47
2019-03-29T04:06:18.357Z,224.58
2019-03-29T04:06:54.375Z,234.60
2019-03-29T04:07:30.335Z,223.15
2019-03-29T04:08:06.344Z,224.80
2019-03-29T04:08:42.303Z,218.07
2019-03-29T04:09:18.381Z,225.18
2019-03-29T04:09:54.421Z,224.45
2019-03-29T04:10:30.398Z,217.77
2019-03-29T04:11:06.355Z,222.95
2019-03-29T04:11:42.381Z,217.43
2019-03-29T04:12:18.628Z,254.03
2019-03-29T04:12:54.616Z,233.70
2019-03-29T04:13:30.624Z,235.23
2019-03-29T04:14:06.617Z,211.55
2019-03-29T04:14:42.583Z,232.92
2019-03-29T04:15:18.696Z,241.90
2019-03-29T04:15:55.356Z,265.80
2019-03-29T04:16:31.401Z,248.50
2019-03-29T04:17:07.342Z,279.27
2019-03-29T04:17:43.277Z,268.35
2019-03-29T04:18:19.357Z,243.50
2019-03-29T04:18:55.179Z,271.10
2019-03-29T04:19:31.037Z,260.10
2019-03-29T04:20:07.403Z,253.07
2019-03-29T04:20:43.561Z,246.20
2019-03-29T04:21:19.458Z,239.23
2019-03-29T04:21:55.408Z,237.32
2019-03-29T04:22:31.340Z,241.73
2019-03-29T04:23:07.408Z,243.25
2019-03-29T04:23:43.520Z,290.00
2019-03-29T04:24:19.597Z,315.40
2019-03-29T04:24:55.913Z,260.82
2019-03-29T04:25:32.033Z,281.60
2019-03-29T04:26:08.143Z,261.02
2019-03-29T04:26:44.204Z,234.80
2019-03-29T04:27:20.302Z,292.87
2019-03-29T04:27:56.660Z,256.52
2019-03-29T04:28:33.149Z,290.12
2019-03-29T04:29:09.104Z,352.10
2019-03-29T04:29:45.078Z,270.55
2019-03-29T04:30:21.255Z,242.62
2019-03-29T04:30:57.422Z,239.35
2019-03-29T04:31:33.723Z,250.70
2019-03-29T04:32:09.822Z,239.35
2019-03-29T04:32:45.842Z,281.70
2019-03-29T04:33:21.978Z,291.08
2019-03-29T04:33:58.144Z,260.60
2019-03-29T04:34:34.034Z,259.57
2019-03-29T04:35:10.310Z,225.18
2019-03-29T04:35:46.355Z,254.35
2019-03-29T04:36:22.414Z,248.65
2019-03-29T04:36:58.328Z,333.43
2019-03-29T04:37:34.596Z,342.20
2019-03-29T04:38:10.631Z,315.30
2019-03-29T04:38:46.691Z,331.00
2019-03-29T04:39:22.861Z,270.35
2019-03-29T04:40:07.061Z,297.07
2019-03-29T04:40:36.920Z,290.12
2019-03-29T04:41:12.866Z,253.20
2019-03-29T04:41:48.854Z,263.68
2019-03-29T04:42:25.131Z,225.15
2019-03-29T04:43:01.223Z,270.33
2019-03-29T04:43:37.281Z,257.00
2019-03-29T04:44:13.376Z,264.82
2019-03-29T04:44:49.821Z,269.75
2019-03-29T04:45:25.926Z,220.33
2019-03-29T04:46:02.527Z,265.80
2019-03-29T04:46:38.520Z,254.97
2019-03-29T04:47:14.601Z,242.30
2019-03-29T04:47:50.747Z,276.75
2019-03-29T04:48:26.645Z,275.87
2019-03-29T04:49:02.749Z,306.07
2019-03-29T04:49:38.898Z,281.23
2019-03-29T04:50:15.216Z,261.80
2019-03-29T04:50:51.290Z,263.48
2019-03-29T04:51:27.685Z,273.13
2019-03-29T04:52:03.888Z,268.20
2019-03-29T04:52:40.060Z,287.27
2019-03-29T04:53:16.040Z,280.77
2019-03-29T04:53:52.496Z,269.93
2019-03-29T04:54:28.643Z,254.82
2019-03-29T04:55:04.795Z,226.65
2019-03-29T04:55:40.865Z,221.85
2019-03-29T04:56:17.141Z,270.93
2019-03-29T04:56:53.521Z,255.10
2019-03-29T04:57:29.585Z,226.27
2019-03-29T04:58:05.575Z,224.60
2019-03-29T04:58:41.806Z,248.40
2019-03-29T04:59:17.859Z,273.25
2019-03-29T04:59:53.961Z,268.70
2019-03-29T05:00:30.425Z,274.32
2019-03-29T05:01:06.794Z,281.93
2019-03-29T05:01:42.924Z,241.08
2019-03-29T05:02:18.993Z,256.23
2019-03-29T05:02:55.539Z,261.30
2019-03-29T05:03:31.593Z,251.42
2019-03-29T05:04:07.651Z,240.72
2019-03-29T05:04:43.922Z,234.92
2019-03-29T05:05:20.029Z,233.85
2019-03-29T05:05:56.234Z,251.37
2019-03-29T05:06:32.193Z,257.32
2019-03-29T05:07:08.174Z,224.67
2019-03-29T05:07:44.536Z,280.27
2019-03-29T05:08:20.702Z,254.18
2019-03-29T05:08:56.942Z,275.77
2019-03-29T05:09:33.195Z,252.65
2019-03-29T05:10:20.595Z,276.98
2019-03-29T05:10:47.336Z,263.12
2019-03-29T05:11:23.557Z,254.32
2019-03-29T05:11:59.732Z,260.50
2019-03-29T05:12:36.217Z,276.92
2019-03-29T05:13:12.533Z,245.33
2019-03-29T05:13:48.846Z,238.92
2019-03-29T05:14:25.114Z,249.55
2019-03-29T05:15:01.172Z,252.65
2019-03-29T05:15:37.345Z,239.75
2019-03-29T05:16:13.691Z,257.15
2019-03-29T05:16:50.535Z,241.30
2019-03-29T05:17:26.659Z,256.30
2019-03-29T05:18:02.931Z,283.23
2019-03-29T05:18:39.234Z,267.05
2019-03-29T05:19:15.652Z,243.78
2019-03-29T05:19:52.167Z,239.88
2019-03-29T05:20:28.457Z,219.62
2019-03-29T05:21:04.705Z,241.78
2019-03-29T05:21:40.981Z,267.60
2019-03-29T05:22:17.717Z,278.15
2019-03-29T05:22:53.845Z,267.95
2019-03-29T05:23:29.898Z,238.72
2019-03-29T05:24:06.172Z,207.83
2019-03-29T05:24:42.202Z,217.32
2019-03-29T05:25:18.363Z,223.15
2019-03-29T05:25:54.376Z,198.60
2019-03-29T05:26:30.285Z,221.18
2019-03-29T05:27:06.424Z,216.38
2019-03-29T05:27:42.623Z,173.57
2019-03-29T05:28:18.571Z,174.00
2019-03-29T05:28:54.783Z,167.93
2019-03-29T05:29:30.842Z,157.47
2019-03-29T05:30:07.433Z,162.40
2019-03-29T05:30:43.705Z,167.25
2019-03-29T05:31:19.642Z,150.80
2019-03-29T05:31:55.908Z,154.25
2019-03-29T05:32:32.572Z,150.47
2019-03-29T05:33:09.009Z,147.32
2019-03-29T05:33:45.100Z,151.22
2019-03-29T05:34:21.675Z,154.80
2019-03-29T05:34:58.104Z,161.82
2019-03-29T05:35:34.384Z,163.95
2019-03-29T05:36:10.631Z,174.47
2019-03-29T05:36:46.781Z,187.95
2019-03-29T05:37:23.337Z,195.57
2019-03-29T05:37:59.480Z,195.62
2019-03-29T05:38:35.669Z,211.60
2019-03-29T05:39:11.913Z,182.02
2019-03-29T05:39:48.261Z,183.85
2019-03-29T05:40:34.412Z,195.03
2019-03-29T05:41:02.146Z,185.52
2019-03-29T05:41:38.322Z,187.70
2019-03-29T05:42:14.319Z,178.10
2019-03-29T05:42:50.591Z,173.57
2019-03-29T05:43:26.865Z,173.93
2019-03-29T05:44:05.453Z,173.28
2019-03-29T05:44:41.765Z,179.18
2019-03-29T05:45:17.989Z,170.77
2019-03-29T05:45:54.207Z,172.22
2019-03-29T05:46:30.661Z,180.25
2019-03-29T05:47:06.916Z,152.65
2019-03-29T05:47:43.032Z,151.80
2019-03-29T05:48:19.127Z,189.45
2019-03-29T05:48:55.370Z,171.80
2019-03-29T05:49:31.488Z,194.82
2019-03-29T05:50:08.238Z,188.85
2019-03-29T05:50:44.509Z,176.12
2019-03-29T05:51:20.739Z,157.25
2019-03-29T05:51:56.726Z,154.85
2019-03-29T05:52:32.737Z,173.93
2019-03-29T05:53:08.969Z,179.18
2019-03-29T05:53:45.137Z,187.65
2019-03-29T05:54:21.027Z,179.03
2019-03-29T05:54:57.095Z,205.55
2019-03-29T05:55:33.170Z,200.82
2019-03-29T05:56:09.336Z,203.20
2019-03-29T05:56:45.501Z,201.77
2019-03-29T05:57:21.732Z,215.00
2019-03-29T05:57:57.861Z,169.00
2019-03-29T05:58:33.833Z,170.00
2019-03-29T05:59:09.929Z,194.43
2019-03-29T05:59:45.851Z,179.05
2019-03-29T06:00:21.792Z,160.30
2019-03-29T06:00:57.548Z,186.47
2019-03-29T06:01:33.513Z,232.37
2019-03-29T06:02:09.467Z,240.90
2019-03-29T06:02:45.345Z,195.95
2019-03-29T06:03:21.311Z,170.15
2019-03-29T06:03:57.503Z,181.75
2019-03-29T06:04:33.598Z,181.52
2019-03-29T06:05:10.013Z,232.40
2019-03-29T06:05:46.408Z,201.32
2019-03-29T06:06:22.589Z,199.70
2019-03-29T06:06:59.070Z,166.32
2019-03-29T06:07:35.358Z,221.55
2019-03-29T06:08:11.692Z,179.38
2019-03-29T06:08:47.875Z,184.45
2019-03-29T06:09:24.012Z,187.35
2019-03-29T06:10:00.529Z,246.68
2019-03-29T06:10:48.409Z,193.52
2019-03-29T06:11:15.097Z,203.85
2019-03-29T06:11:51.238Z,197.62
2019-03-29T06:12:27.641Z,193.45
2019-03-29T06:13:03.808Z,244.10
2019-03-29T06:13:39.869Z,261.43
2019-03-29T06:14:16.096Z,229.55
2019-03-29T06:14:52.327Z,177.05
2019-03-29T06:15:28.754Z,185.55
2019-03-29T06:16:06.270Z,266.50
2019-03-29T06:16:42.473Z,218.42
2019-03-29T06:17:18.792Z,180.03
2019-03-29T06:17:55.559Z,234.67
2019-03-29T06:18:31.705Z,280.05
2019-03-29T06:19:07.839Z,226.88
2019-03-29T06:19:44.122Z,249.58
2019-03-29T06:20:20.559Z,265.70
2019-03-29T06:20:56.666Z,269.87
2019-03-29T06:21:32.835Z,242.97
2019-03-29T06:22:09.084Z,230.95
2019-03-29T06:22:45.438Z,239.63
2019-03-29T06:23:21.715Z,301.30
2019-03-29T06:23:57.848Z,241.38
2019-03-29T06:24:34.350Z,278.75
2019-03-29T06:25:10.600Z,265.50
2019-03-29T06:25:46.656Z,196.53
2019-03-29T06:26:22.969Z,271.25
2019-03-29T06:26:59.157Z,207.62
2019-03-29T06:27:35.438Z,248.47
2019-03-29T06:28:11.662Z,263.68
2019-03-29T06:28:47.786Z,246.55
2019-03-29T06:29:24.094Z,276.10
2019-03-29T06:30:00.359Z,207.57
2019-03-29T06:30:36.718Z,201.05
2019-03-29T06:31:13.339Z,254.18
2019-03-29T06:31:49.608Z,175.97
2019-03-29T06:32:25.793Z,187.80
2019-03-29T06:33:02.050Z,186.52
2019-03-29T06:33:38.251Z,177.78
2019-03-29T06:34:14.608Z,200.28
2019-03-29T06:34:50.925Z,189.93
2019-03-29T06:35:27.881Z,184.97
2019-03-29T06:36:06.431Z,172.47
2019-03-29T06:36:43.305Z,152.62
2019-03-29T06:37:20.311Z,171.43
2019-03-29T06:37:56.681Z,154.72
2019-03-29T06:38:35.038Z,146.02
2019-03-29T06:39:12.093Z,138.45
2019-03-29T06:39:48.809Z,139.18
2019-03-29T06:40:27.848Z,136.15
2019-03-29T06:41:04.015Z,153.07
2019-03-29T06:41:40.325Z,145.55
2019-03-29T06:42:16.398Z,140.50
2019-03-29T06:42:52.656Z,138.85
2019-03-29T06:43:28.889Z,137.68
2019-03-29T06:44:04.890Z,144.05
2019-03-29T06:44:44.100Z,140.18
2019-03-29T06:45:18.939Z,140.00
2019-03-29T06:45:55.010Z,139.25
2019-03-29T06:46:31.347Z,143.30
2019-03-29T06:47:07.629Z,140.85
2019-03-29T06:47:43.983Z,138.95
2019-03-29T06:48:20.539Z,133.50
2019-03-29T06:48:56.863Z,138.35
2019-03-29T06:49:33.182Z,128.35
2019-03-29T06:50:09.450Z,136.68
2019-03-29T06:50:45.662Z,131.15
2019-03-29T06:51:22.100Z,134.05
2019-03-29T06:51:58.432Z,128.97
2019-03-29T06:52:34.628Z,130.20
2019-03-29T06:53:11.054Z,128.27
2019-03-29T06:53:47.683Z,129.78
2019-03-29T06:54:23.830Z,133.35
2019-03-29T06:55:00.224Z,126.62
2019-03-29T06:55:36.702Z,122.45
2019-03-29T06:56:12.937Z,125.20
2019-03-29T06:56:49.351Z,120.85
2019-03-29T06:57:25.965Z,121.07
2019-03-29T06:58:02.459Z,126.62
2019-03-29T06:58:38.681Z,122.33
2019-03-29T06:59:14.968Z,123.30
2019-03-29T06:59:51.319Z,124.50
2019-03-29T07:00:27.729Z,107.58
2019-03-29T07:01:04.212Z,117.82
2019-03-29T07:01:40.647Z,110.48
2019-03-29T07:02:17.023Z,117.97
2019-03-29T07:02:53.225Z,120.00
2019-03-29T07:03:29.563Z,108.70
2019-03-29T07:04:05.922Z,109.57
2019-03-29T07:04:42.345Z,117.17
2019-03-29T07:05:18.519Z,107.90
2019-03-29T07:05:54.862Z,109.07
2019-03-29T07:06:31.003Z,105.20
2019-03-29T07:07:07.488Z,100.75
2019-03-29T07:07:44.656Z,100.42
2019-03-29T07:08:21.449Z,100.65
2019-03-29T07:08:57.941Z,100.35
2019-03-29T07:09:34.398Z,100.50
2019-03-29T07:10:10.658Z,98.00
2019-03-29T07:10:46.816Z,104.03
2019-03-29T07:11:23.067Z,111.05
2019-03-29T07:11:59.794Z,122.72
2019-03-29T07:12:36.414Z,118.10
2019-03-29T07:13:13.249Z,123.92
2019-03-29T07:13:57.518Z,112.15
2019-03-29T07:14:28.076Z,101.87
2019-03-29T07:15:04.361Z,104.23
2019-03-29T07:15:40.769Z,99.92
2019-03-29T07:16:17.270Z,97.27
2019-03-29T07:16:53.615Z,94.20
2019-03-29T07:17:30.012Z,95.70
2019-03-29T07:18:06.694Z,94.70
2019-03-29T07:18:42.818Z,92.55
2019-03-29T07:19:19.432Z,101.27
2019-03-29T07:19:55.610Z,92.47
2019-03-29T07:20:31.708Z,96.15
2019-03-29T07:21:20.745Z,93.87
2019-03-29T07:21:46.399Z,95.10
2019-03-29T07:22:22.764Z,95.25
2019-03-29T07:22:58.939Z,107.25
2019-03-29T07:23:35.434Z,98.25
2019-03-29T07:24:11.853Z,95.03
2019-03-29T07:24:48.109Z,100.72
2019-03-29T07:25:24.833Z,100.50
2019-03-29T07:26:00.972Z,97.57
2019-03-29T07:26:37.251Z,93.22
2019-03-29T07:27:13.534Z,94.35
2019-03-29T07:27:52.413Z,103.78
2019-03-29T07:28:27.514Z,100.58
2019-03-29T07:29:03.788Z,109.87
2019-03-29T07:29:40.059Z,97.92
2019-03-29T07:30:16.770Z,97.72
2019-03-29T07:30:52.934Z,99.37
2019-03-29T07:31:29.069Z,105.20
2019-03-29T07:32:05.224Z,107.92
2019-03-29T07:32:41.515Z,103.65
2019-03-29T07:33:17.860Z,100.18
2019-03-29T07:33:54.517Z,99.97
2019-03-29T07:34:30.808Z,96.28
2019-03-29T07:35:07.237Z,94.87
2019-03-29T07:35:43.238Z,99.83
2019-03-29T07:36:19.718Z,98.00
2019-03-29T07:36:56.137Z,91.95
2019-03-29T07:37:32.553Z,96.92
2019-03-29T07:38:09.012Z,95.60
2019-03-29T07:38:45.488Z,92.62
2019-03-29T07:39:21.644Z,91.15
2019-03-29T07:39:57.922Z,89.60
2019-03-29T07:40:34.240Z,92.55
2019-03-29T07:41:10.327Z,95.12